createdAt,value
2018-03-02T00:00:33.421Z,998.24
2018-03-02T00:01:33.406Z,998.24
2018-03-02T00:02:33.383Z,998.21
2018-03-02T00:03:33.368Z,998.16
2018-03-02T00:04:33.355Z,998.17
2018-03-02T00:05:33.329Z,998.19
2018-03-02T00:06:33.309Z,998.10
2018-03-02T00:07:33.295Z,998.10
2018-03-02T00:08:33.274Z,998.11
2018-03-02T00:09:33.259Z,998.16
2018-03-02T00:10:33.252Z,998.01
2018-03-02T00:11:33.226Z,998.04
2018-03-02T00:12:33.211Z,998.06
2018-03-02T00:13:33.193Z,998.12
2018-03-02T00:14:33.172Z,998.06
2018-03-02T00:15:33.163Z,998.06
2018-03-02T00:16:33.135Z,998.10
2018-03-02T00:17:33.116Z,998.05
2018-03-02T00:18:33.100Z,997.97
2018-03-02T00:19:33.092Z,998.02
2018-03-02T00:20:33.066Z,997.97
2018-03-02T00:21:33.045Z,997.94
2018-03-02T00:22:33.021Z,997.94
2018-03-02T00:23:33.019Z,997.93
2018-03-02T00:24:32.988Z,997.93
2018-03-02T00:25:32.970Z,997.90
2018-03-02T00:26:32.975Z,997.92
2018-03-02T00:27:32.934Z,997.89
2018-03-02T00:28:32.924Z,997.90
2018-03-02T00:29:32.894Z,997.87
2018-03-02T00:30:32.877Z,997.86
2018-03-02T00:31:32.877Z,997.88
2018-03-02T00:32:32.845Z,997.89
2018-03-02T00:33:32.824Z,997.91
2018-03-02T00:34:32.805Z,997.89
2018-03-02T00:35:32.788Z,997.97
2018-03-02T00:36:32.766Z,997.90
2018-03-02T00:37:32.760Z,997.96
2018-03-02T00:38:32.733Z,997.87
2018-03-02T00:39:32.720Z,997.92
2018-03-02T00:40:32.708Z,997.88
2018-03-02T00:41:32.683Z,997.85
2018-03-02T00:42:32.662Z,997.85
2018-03-02T00:43:32.646Z,997.92
2018-03-02T00:44:32.627Z,997.89
2018-03-02T00:45:32.610Z,997.79
2018-03-02T00:46:32.591Z,997.85
2018-03-02T00:47:32.578Z,997.77
2018-03-02T00:48:32.553Z,997.72
2018-03-02T00:49:32.533Z,997.75
2018-03-02T00:50:32.510Z,997.71
2018-03-02T00:51:32.497Z,997.70
2018-03-02T00:52:32.480Z,997.70
2018-03-02T00:53:32.461Z,997.70
2018-03-02T00:54:32.450Z,997.66
2018-03-02T00:55:32.426Z,997.72
2018-03-02T00:56:32.406Z,997.69
2018-03-02T00:57:32.385Z,997.66
2018-03-02T00:58:32.380Z,997.69
2018-03-02T00:59:32.349Z,997.76
2018-03-02T01:00:32.333Z,997.71
2018-03-02T01:01:32.314Z,997.63
2018-03-02T01:02:32.295Z,997.63
2018-03-02T01:03:32.276Z,997.67
2018-03-02T01:04:32.257Z,997.77
2018-03-02T01:05:32.241Z,997.67
2018-03-02T01:06:32.227Z,997.59
2018-03-02T01:07:32.210Z,997.60
2018-03-02T01:08:32.189Z,997.71
2018-03-02T01:09:32.166Z,997.58
2018-03-02T01:10:32.148Z,997.57
2018-03-02T01:11:32.134Z,997.63
2018-03-02T01:12:32.112Z,997.53
2018-03-02T01:13:32.095Z,997.50
2018-03-02T01:14:32.076Z,997.61
2018-03-02T01:15:32.058Z,997.56
2018-03-02T01:16:32.034Z,997.55
2018-03-02T01:17:32.027Z,997.56
2018-03-02T01:18:32.000Z,997.54
2018-03-02T01:19:31.986Z,997.59
2018-03-02T01:20:31.966Z,997.48
2018-03-02T01:21:31.951Z,997.58
2018-03-02T01:22:31.929Z,997.43
2018-03-02T01:23:31.911Z,997.37
2018-03-02T01:24:31.888Z,997.61
2018-03-02T01:25:31.869Z,997.61
2018-03-02T01:26:31.855Z,997.52
2018-03-02T01:27:31.843Z,997.61
2018-03-02T01:28:31.820Z,997.57
2018-03-02T01:29:31.800Z,997.52
2018-03-02T01:30:31.784Z,997.51
2018-03-02T01:31:31.766Z,997.53
2018-03-02T01:32:31.769Z,997.44
2018-03-02T01:33:31.725Z,997.50
2018-03-02T01:34:31.701Z,997.48
2018-03-02T01:35:31.685Z,997.45
2018-03-02T01:36:31.673Z,997.41
2018-03-02T01:37:31.651Z,997.43
2018-03-02T01:38:31.631Z,997.43
2018-03-02T01:39:31.620Z,997.40
2018-03-02T01:40:31.601Z,997.31
2018-03-02T01:41:31.578Z,997.37
2018-03-02T01:42:31.558Z,997.30
2018-03-02T01:43:31.547Z,997.21
2018-03-02T01:44:31.520Z,997.28
2018-03-02T01:45:31.504Z,997.21
2018-03-02T01:46:31.483Z,997.20
2018-03-02T01:47:31.471Z,997.14
2018-03-02T01:48:31.447Z,997.08
2018-03-02T01:49:31.436Z,997.11
2018-03-02T01:50:31.414Z,997.04
2018-03-02T01:51:31.402Z,997.03
2018-03-02T01:52:31.375Z,997.06
2018-03-02T01:53:31.356Z,997.09
2018-03-02T01:54:31.351Z,997.06
2018-03-02T01:55:31.318Z,997.03
2018-03-02T01:56:31.302Z,997.13
2018-03-02T01:57:31.283Z,997.08
2018-03-02T01:58:31.268Z,997.07
2018-03-02T01:59:31.243Z,997.13
2018-03-02T02:00:31.225Z,997.10
2018-03-02T02:01:31.211Z,997.04
2018-03-02T02:02:31.189Z,997.16
2018-03-02T02:03:31.175Z,997.13
2018-03-02T02:04:31.149Z,997.15
2018-03-02T02:05:31.134Z,997.09
2018-03-02T02:06:31.116Z,997.09
2018-03-02T02:07:31.101Z,997.03
2018-03-02T02:08:31.082Z,997.09
2018-03-02T02:09:31.059Z,997.02
2018-03-02T02:10:31.042Z,996.90
2018-03-02T02:11:31.025Z,997.01
2018-03-02T02:12:31.001Z,997.08
2018-03-02T02:13:30.988Z,997.07
2018-03-02T02:14:30.968Z,997.09
2018-03-02T02:15:30.948Z,997.12
2018-03-02T02:16:30.936Z,997.05
2018-03-02T02:17:30.912Z,997.03
2018-03-02T02:18:30.893Z,997.03
2018-03-02T02:19:30.876Z,997.02
2018-03-02T02:20:30.855Z,996.97
2018-03-02T02:21:30.834Z,997.02
2018-03-02T02:22:30.817Z,996.98
2018-03-02T02:23:30.803Z,996.97
2018-03-02T02:24:30.783Z,996.91
2018-03-02T02:25:30.763Z,996.96
2018-03-02T02:26:30.742Z,996.96
2018-03-02T02:27:30.726Z,996.91
2018-03-02T02:28:30.707Z,996.83
2018-03-02T02:29:30.692Z,996.92
2018-03-02T02:30:30.666Z,996.93
2018-03-02T02:31:30.665Z,996.86
2018-03-02T02:32:30.633Z,996.83
2018-03-02T02:33:30.614Z,996.90
2018-03-02T02:34:30.596Z,996.79
2018-03-02T02:35:30.574Z,996.82
2018-03-02T02:36:30.558Z,996.75
2018-03-02T02:37:30.540Z,996.70
2018-03-02T02:38:30.523Z,996.70
2018-03-02T02:39:30.504Z,996.79
2018-03-02T02:40:30.484Z,996.73
2018-03-02T02:41:30.477Z,996.72
2018-03-02T02:42:30.451Z,996.83
2018-03-02T02:43:30.427Z,996.75
2018-03-02T02:44:30.404Z,996.79
2018-03-02T02:45:30.393Z,996.65
2018-03-02T02:46:30.372Z,996.71
2018-03-02T02:47:30.354Z,996.73
2018-03-02T02:48:30.339Z,996.69
2018-03-02T02:49:30.317Z,996.71
2018-03-02T02:50:30.303Z,996.73
2018-03-02T02:51:30.277Z,996.71
2018-03-02T02:52:30.260Z,996.69
2018-03-02T02:53:30.240Z,996.61
2018-03-02T02:54:30.223Z,996.68
2018-03-02T02:55:30.212Z,996.65
2018-03-02T02:56:30.186Z,996.75
2018-03-02T02:57:30.167Z,996.68
2018-03-02T02:58:30.144Z,996.70
2018-03-02T02:59:30.131Z,996.70
2018-03-02T03:00:30.113Z,996.67
2018-03-02T03:01:30.092Z,996.78
2018-03-02T03:02:30.074Z,996.79
2018-03-02T03:03:30.052Z,996.75
2018-03-02T03:04:30.036Z,996.84
2018-03-02T03:05:30.015Z,996.79
2018-03-02T03:06:29.998Z,996.78
2018-03-02T03:07:29.979Z,996.74
2018-03-02T03:08:29.968Z,996.75
2018-03-02T03:09:29.940Z,996.74
2018-03-02T03:10:29.922Z,996.69
2018-03-02T03:11:29.904Z,996.73
2018-03-02T03:12:29.891Z,996.68
2018-03-02T03:13:29.865Z,996.68
2018-03-02T03:14:29.850Z,996.59
2018-03-02T03:15:29.834Z,996.66
2018-03-02T03:16:29.818Z,996.63
2018-03-02T03:17:29.788Z,996.64
2018-03-02T03:18:29.767Z,996.63
2018-03-02T03:19:29.759Z,996.62
2018-03-02T03:20:29.739Z,996.61
2018-03-02T03:21:29.715Z,996.56
2018-03-02T03:22:29.696Z,996.51
2018-03-02T03:23:29.678Z,996.49
2018-03-02T03:24:29.661Z,996.49
2018-03-02T03:25:29.639Z,996.50
2018-03-02T03:26:29.633Z,996.48
2018-03-02T03:27:29.607Z,996.45
2018-03-02T03:28:29.588Z,996.48
2018-03-02T03:29:29.566Z,996.47
2018-03-02T03:32:24.338Z,996.40
2018-03-02T03:33:02.538Z,996.40
2018-03-02T03:34:56.234Z,996.38
2018-03-02T03:35:56.210Z,996.35
2018-03-02T03:37:49.908Z,996.43
2018-03-02T03:38:49.834Z,996.39
2018-03-02T03:40:43.465Z,996.38
2018-03-02T03:41:43.375Z,996.43
2018-03-02T03:43:37.204Z,996.24
2018-03-02T03:44:37.018Z,996.35
2018-03-02T03:46:30.594Z,996.36
2018-03-02T03:47:30.538Z,996.36
2018-03-02T03:49:24.180Z,996.27
2018-03-02T03:50:24.153Z,996.30
2018-03-02T03:52:17.693Z,996.32
2018-03-02T03:53:17.649Z,996.26
2018-03-02T03:55:12.398Z,996.23
2018-03-02T03:56:12.368Z,996.22
2018-03-02T03:58:06.763Z,996.21
2018-03-02T03:59:06.717Z,996.21
2018-03-02T04:01:01.189Z,996.24
2018-03-02T04:02:00.553Z,996.29
2018-03-02T04:03:54.485Z,996.23
2018-03-02T04:04:54.102Z,996.25
2018-03-02T04:06:47.922Z,996.18
2018-03-02T04:07:47.747Z,996.15
2018-03-02T04:09:41.470Z,996.24
2018-03-02T04:10:41.423Z,996.19
2018-03-02T04:12:35.017Z,996.17
2018-03-02T04:13:34.979Z,996.16
2018-03-02T04:15:28.574Z,996.13
2018-03-02T04:16:28.539Z,996.12
2018-03-02T04:18:22.119Z,996.08
2018-03-02T04:19:22.074Z,996.11
2018-03-02T04:21:15.804Z,996.11
2018-03-02T04:22:15.737Z,995.99
2018-03-02T04:24:10.140Z,996.02
2018-03-02T04:25:10.117Z,996.00
2018-03-02T04:27:03.708Z,995.94
2018-03-02T04:28:03.659Z,995.98
2018-03-02T04:29:57.610Z,995.93
2018-03-02T04:30:57.269Z,996.00
2018-03-02T04:31:57.247Z,995.92
2018-03-02T04:32:57.227Z,995.99
2018-03-02T04:33:57.211Z,995.95
2018-03-02T04:34:57.195Z,996.05
2018-03-02T04:35:57.196Z,996.02
2018-03-02T04:36:57.152Z,996.04
2018-03-02T04:37:57.159Z,996.00
2018-03-02T04:38:57.119Z,995.94
2018-03-02T04:39:57.099Z,995.97
2018-03-02T04:40:57.077Z,995.98
2018-03-02T04:41:57.063Z,996.05
2018-03-02T04:42:57.039Z,995.99
2018-03-02T04:43:57.016Z,995.99
2018-03-02T04:44:57.001Z,995.97
2018-03-02T04:45:56.987Z,995.94
2018-03-02T04:46:56.957Z,995.95
2018-03-02T04:47:56.940Z,995.91
2018-03-02T04:48:56.924Z,995.95
2018-03-02T04:49:56.906Z,995.99
2018-03-02T04:50:56.887Z,995.91
2018-03-02T04:51:56.870Z,995.94
2018-03-02T04:52:56.849Z,995.96
2018-03-02T04:53:56.829Z,995.94
2018-03-02T04:54:56.811Z,995.91
2018-03-02T04:55:56.790Z,995.97
2018-03-02T04:56:56.774Z,995.90
2018-03-02T04:57:56.776Z,995.93
2018-03-02T04:58:56.730Z,995.90
2018-03-02T04:59:56.711Z,995.91
2018-03-02T05:00:56.693Z,995.91
2018-03-02T05:01:56.674Z,995.86
2018-03-02T05:02:56.652Z,995.91
2018-03-02T05:03:56.638Z,995.97
2018-03-02T05:04:56.622Z,995.93
2018-03-02T05:05:56.596Z,995.89
2018-03-02T05:06:56.581Z,995.92
2018-03-02T05:07:56.557Z,995.82
2018-03-02T05:08:56.553Z,995.89
2018-03-02T05:09:56.520Z,995.84
2018-03-02T05:10:56.502Z,995.89
2018-03-02T05:11:56.477Z,995.87
2018-03-02T05:12:56.468Z,996.05
2018-03-02T05:13:56.443Z,995.88
2018-03-02T05:14:56.420Z,995.79
2018-03-02T05:15:56.404Z,995.89
2018-03-02T05:16:56.390Z,995.82
2018-03-02T05:17:56.367Z,995.81
2018-03-02T05:18:56.343Z,995.84
2018-03-02T05:19:56.328Z,995.87
2018-03-02T05:20:56.309Z,995.91
2018-03-02T05:21:56.289Z,995.84
2018-03-02T05:22:56.269Z,995.74
2018-03-02T05:23:56.248Z,995.82
2018-03-02T05:24:56.231Z,995.83
2018-03-02T05:25:56.210Z,995.69
2018-03-02T05:26:56.189Z,995.70
2018-03-02T05:27:56.171Z,995.74
2018-03-02T05:28:56.149Z,995.69
2018-03-02T05:29:56.139Z,995.68
2018-03-02T05:30:56.112Z,995.67
2018-03-02T05:31:56.093Z,995.66
2018-03-02T05:32:56.090Z,995.62
2018-03-02T05:33:56.055Z,995.62
2018-03-02T05:34:56.045Z,995.56
2018-03-02T05:35:56.014Z,995.57
2018-03-02T05:36:56.002Z,995.60
2018-03-02T05:37:55.980Z,995.63
2018-03-02T05:38:55.962Z,995.60
2018-03-02T05:39:55.940Z,995.59
2018-03-02T05:40:55.921Z,995.55
2018-03-02T05:41:55.910Z,995.59
2018-03-02T05:42:55.881Z,995.44
2018-03-02T05:43:55.859Z,995.45
2018-03-02T05:44:55.880Z,995.51
2018-03-02T05:45:55.826Z,995.44
2018-03-02T05:46:55.808Z,995.39
2018-03-02T05:47:55.784Z,995.39
2018-03-02T05:48:55.773Z,995.43
2018-03-02T05:49:55.750Z,995.33
2018-03-02T05:50:55.730Z,995.42
2018-03-02T05:51:55.716Z,995.43
2018-03-02T05:52:55.694Z,995.38
2018-03-02T05:53:55.671Z,995.38
2018-03-02T05:54:55.657Z,995.44
2018-03-02T05:55:55.630Z,995.42
2018-03-02T05:56:55.621Z,995.39
2018-03-02T05:57:55.594Z,995.40
2018-03-02T05:58:55.576Z,995.43
2018-03-02T05:59:55.556Z,995.46
2018-03-02T06:00:55.536Z,995.40
2018-03-02T06:01:55.515Z,995.29
2018-03-02T06:02:55.507Z,995.35
2018-03-02T06:03:55.474Z,995.35
2018-03-02T06:04:55.457Z,995.37
2018-03-02T06:05:55.437Z,995.36
2018-03-02T06:06:55.420Z,995.35
2018-03-02T06:07:55.402Z,995.36
2018-03-02T06:08:55.379Z,995.35
2018-03-02T06:09:55.367Z,995.39
2018-03-02T06:10:55.388Z,995.44
2018-03-02T06:11:55.328Z,995.40
2018-03-02T06:12:55.301Z,995.43
2018-03-02T06:13:55.284Z,995.42
2018-03-02T06:14:55.263Z,995.38
2018-03-02T06:15:55.243Z,995.40
2018-03-02T06:16:55.229Z,995.41
2018-03-02T06:17:55.207Z,995.39
2018-03-02T06:18:55.188Z,995.34
2018-03-02T06:19:55.163Z,995.39
2018-03-02T06:20:55.147Z,995.40
2018-03-02T06:21:55.126Z,995.38
2018-03-02T06:22:55.124Z,995.44
2018-03-02T06:23:55.086Z,995.40
2018-03-02T06:24:55.068Z,995.47
2018-03-02T06:25:55.051Z,995.43
2018-03-02T06:26:55.031Z,995.39
2018-03-02T06:27:55.008Z,995.40
2018-03-02T06:28:54.994Z,995.41
2018-03-02T06:29:54.972Z,995.38
2018-03-02T06:30:54.955Z,995.36
2018-03-02T06:31:54.936Z,995.36
2018-03-02T06:32:54.919Z,995.40
2018-03-02T06:33:54.896Z,995.34
2018-03-02T06:34:54.927Z,995.40
2018-03-02T06:35:54.858Z,995.46
2018-03-02T06:36:54.837Z,995.39
2018-03-02T06:37:54.820Z,995.36
2018-03-02T06:38:54.800Z,995.44
2018-03-02T06:39:54.786Z,995.35
2018-03-02T06:40:54.763Z,995.31
2018-03-02T06:41:54.744Z,995.33
2018-03-02T06:42:54.720Z,995.27
2018-03-02T06:43:54.704Z,995.26
2018-03-02T06:44:54.684Z,995.23
2018-03-02T06:45:54.667Z,995.17
2018-03-02T06:46:54.644Z,995.26
2018-03-02T06:47:54.626Z,995.24
2018-03-02T06:48:54.608Z,995.20
2018-03-02T06:49:54.588Z,995.23
2018-03-02T06:50:54.568Z,995.15
2018-03-02T06:51:54.551Z,995.09
2018-03-02T06:52:54.534Z,995.13
2018-03-02T06:53:54.511Z,995.12
2018-03-02T06:54:54.491Z,995.17
2018-03-02T06:55:54.477Z,995.10
2018-03-02T06:56:54.454Z,995.11
2018-03-02T06:57:54.435Z,995.07
2018-03-02T06:58:54.414Z,995.11
2018-03-02T06:59:54.439Z,995.08
2018-03-02T07:00:54.378Z,995.10
2018-03-02T07:01:54.386Z,995.02
2018-03-02T07:02:54.338Z,995.11
2018-03-02T07:03:54.324Z,995.03
2018-03-02T07:04:54.303Z,995.02
2018-03-02T07:05:54.282Z,994.98
2018-03-02T07:06:54.265Z,995.04
2018-03-02T07:07:54.282Z,994.95
2018-03-02T07:08:54.329Z,994.96
2018-03-02T07:09:54.209Z,994.98
2018-03-02T07:10:54.189Z,995.00
2018-03-02T07:11:54.172Z,995.05
2018-03-02T07:12:54.154Z,995.00
2018-03-02T07:13:54.134Z,995.01
2018-03-02T07:14:54.114Z,994.99
2018-03-02T07:15:54.095Z,995.02
2018-03-02T07:16:54.077Z,994.98
2018-03-02T07:17:54.061Z,994.99
2018-03-02T07:18:54.043Z,994.98
2018-03-02T07:19:54.022Z,994.91
2018-03-02T07:20:54.008Z,994.96
2018-03-02T07:21:53.990Z,994.76
2018-03-02T07:22:53.992Z,994.94
2018-03-02T07:23:53.947Z,994.83
2018-03-02T07:24:53.948Z,994.70
2018-03-02T07:25:53.913Z,994.92
2018-03-02T07:26:53.915Z,994.85
2018-03-02T07:27:53.872Z,994.90
2018-03-02T07:28:53.893Z,994.87
2018-03-02T07:29:53.848Z,994.86
2018-03-02T07:30:53.824Z,994.94
2018-03-02T07:31:53.804Z,994.88
2018-03-02T07:32:53.785Z,994.91
2018-03-02T07:33:54.146Z,994.96
2018-03-02T07:34:53.751Z,994.94
2018-03-02T07:35:53.782Z,994.93
2018-03-02T07:36:53.735Z,994.92
2018-03-02T07:37:53.805Z,994.93
2018-03-02T07:38:53.678Z,994.94
2018-03-02T07:39:53.660Z,994.98
2018-03-02T07:40:53.639Z,994.90
2018-03-02T07:41:53.616Z,994.89
2018-03-02T07:42:53.605Z,994.89
2018-03-02T07:43:53.621Z,994.91
2018-03-02T07:44:53.565Z,994.94
2018-03-02T07:45:53.593Z,994.92
2018-03-02T07:46:53.737Z,994.99
2018-03-02T07:47:53.512Z,994.93
2018-03-02T07:48:53.506Z,994.95
2018-03-02T07:49:53.475Z,994.96
2018-03-02T07:50:53.460Z,995.04
2018-03-02T07:51:53.437Z,994.92
2018-03-02T07:52:53.437Z,994.97
2018-03-02T07:53:53.406Z,994.91
2018-03-02T07:54:53.388Z,994.89
2018-03-02T07:55:53.369Z,994.96
2018-03-02T07:56:53.348Z,994.90
2018-03-02T07:57:53.333Z,994.89
2018-03-02T07:58:53.315Z,994.80
2018-03-02T07:59:53.293Z,994.89
2018-03-02T08:00:53.275Z,994.80
2018-03-02T08:01:53.260Z,994.70
2018-03-02T08:02:53.243Z,994.76
2018-03-02T08:03:53.219Z,994.80
2018-03-02T08:04:53.204Z,994.75
2018-03-02T08:05:53.191Z,994.76
2018-03-02T08:06:53.174Z,994.77
2018-03-02T08:07:53.158Z,994.76
2018-03-02T08:08:53.137Z,994.77
2018-03-02T08:09:53.115Z,994.70
2018-03-02T08:10:53.099Z,994.70
2018-03-02T08:11:53.092Z,994.65
2018-03-02T08:12:53.066Z,994.71
2018-03-02T08:13:53.071Z,994.72
2018-03-02T08:14:53.036Z,994.64
2018-03-02T08:15:53.012Z,994.62
2018-03-02T08:16:52.991Z,994.65
2018-03-02T08:17:52.981Z,994.61
2018-03-02T08:18:53.022Z,994.67
2018-03-02T08:19:52.943Z,994.61
2018-03-02T08:20:52.924Z,994.67
2018-03-02T08:21:52.914Z,994.72
2018-03-02T08:22:52.917Z,994.68
2018-03-02T08:23:52.872Z,994.65
2018-03-02T08:24:52.872Z,994.67
2018-03-02T08:25:52.845Z,994.61
2018-03-02T08:26:52.831Z,994.65
2018-03-02T08:27:52.804Z,994.70
2018-03-02T08:28:52.806Z,994.61
2018-03-02T08:29:52.769Z,994.63
2018-03-02T08:30:52.754Z,994.59
2018-03-02T08:31:52.734Z,994.59
2018-03-02T08:32:52.719Z,994.65
2018-03-02T08:33:52.701Z,994.64
2018-03-02T08:34:52.687Z,994.62
2018-03-02T08:35:52.666Z,994.64
2018-03-02T08:36:52.653Z,994.57
2018-03-02T08:37:52.631Z,994.62
2018-03-02T08:38:52.619Z,994.68
2018-03-02T08:39:52.621Z,994.64
2018-03-02T08:40:52.584Z,994.72
2018-03-02T08:41:52.568Z,994.72
2018-03-02T08:42:52.582Z,994.70
2018-03-02T08:43:52.533Z,994.72
2018-03-02T08:44:52.516Z,994.70
2018-03-02T08:45:52.523Z,994.69
2018-03-02T08:46:52.489Z,994.66
2018-03-02T08:47:52.476Z,994.59
2018-03-02T08:48:52.456Z,994.67
2018-03-02T08:49:52.464Z,994.68
2018-03-02T08:50:52.428Z,994.67
2018-03-02T08:51:52.403Z,994.58
2018-03-02T08:52:52.389Z,994.62
2018-03-02T08:53:52.371Z,994.72
2018-03-02T08:54:52.363Z,994.60
2018-03-02T08:55:52.344Z,994.60
2018-03-02T08:56:52.330Z,994.57
2018-03-02T08:57:52.315Z,994.59
2018-03-02T08:58:52.309Z,994.42
2018-03-02T08:59:52.278Z,994.56
2018-03-02T09:00:52.266Z,994.47
2018-03-02T09:01:52.251Z,994.45
2018-03-02T09:02:52.232Z,994.50
2018-03-02T09:03:52.220Z,994.49
2018-03-02T09:04:52.208Z,994.59
2018-03-02T09:05:52.204Z,994.52
2018-03-02T09:06:52.177Z,994.62
2018-03-02T09:07:52.172Z,994.47
2018-03-02T09:08:52.145Z,994.63
2018-03-02T09:09:52.130Z,994.72
2018-03-02T09:10:52.120Z,994.67
2018-03-02T09:11:52.105Z,994.63
2018-03-02T09:12:52.120Z,994.59
2018-03-02T09:13:52.092Z,994.60
2018-03-02T09:14:52.075Z,994.59
2018-03-02T09:15:52.060Z,994.57
2018-03-02T09:16:52.069Z,994.61
2018-03-02T09:17:52.033Z,994.64
2018-03-02T09:18:52.016Z,994.48
2018-03-02T09:19:52.005Z,994.56
2018-03-02T09:20:52.000Z,994.61
2018-03-02T09:21:51.982Z,994.58
2018-03-02T09:22:51.977Z,994.44
2018-03-02T09:23:52.010Z,994.58
2018-03-02T09:24:51.947Z,994.57
2018-03-02T09:25:51.944Z,994.42
2018-03-02T09:26:51.927Z,994.51
2018-03-02T09:27:51.918Z,994.44
2018-03-02T09:28:51.906Z,994.49
2018-03-02T09:29:51.899Z,994.53
2018-03-02T09:30:51.887Z,994.43
2018-03-02T09:31:51.874Z,994.44
2018-03-02T09:32:51.866Z,994.41
2018-03-02T09:33:51.850Z,994.38
2018-03-02T09:34:51.845Z,994.24
2018-03-02T09:35:51.838Z,994.33
2018-03-02T09:36:51.830Z,994.32
2018-03-02T09:37:51.814Z,994.10
2018-03-02T09:38:51.802Z,994.18
2018-03-02T09:39:51.791Z,994.17
2018-03-02T09:40:51.776Z,994.16
2018-03-02T09:41:51.769Z,994.26
2018-03-02T09:42:51.799Z,994.27
2018-03-02T09:43:51.748Z,994.27
2018-03-02T09:44:51.736Z,994.26
2018-03-02T09:45:51.729Z,994.36
2018-03-02T09:46:51.716Z,994.34
2018-03-02T09:47:51.724Z,994.36
2018-03-02T09:48:51.695Z,994.26
2018-03-02T09:49:51.690Z,994.35
2018-03-02T09:50:51.679Z,994.23
2018-03-02T09:51:51.665Z,994.24
2018-03-02T09:52:51.654Z,994.16
2018-03-02T09:53:51.646Z,994.14
2018-03-02T09:54:51.635Z,994.11
2018-03-02T09:55:51.626Z,994.15
2018-03-02T09:56:51.622Z,994.15
2018-03-02T09:57:51.605Z,994.27
2018-03-02T09:58:51.599Z,994.16
2018-03-02T09:59:51.592Z,994.29
2018-03-02T10:00:51.580Z,994.25
2018-03-02T10:01:51.578Z,994.15
2018-03-02T10:02:51.564Z,994.22
2018-03-02T10:03:51.558Z,994.23
2018-03-02T10:04:51.565Z,994.16
2018-03-02T10:05:51.535Z,994.11
2018-03-02T10:06:51.534Z,994.11
2018-03-02T10:07:51.522Z,994.16
2018-03-02T10:08:51.517Z,994.30
2018-03-02T10:09:51.502Z,994.16
2018-03-02T10:10:51.489Z,994.16
2018-03-02T10:11:51.482Z,994.16
2018-03-02T10:12:51.474Z,994.23
2018-03-02T10:13:51.465Z,994.21
2018-03-02T10:14:51.461Z,994.14
2018-03-02T10:15:51.458Z,994.16
2018-03-02T10:16:51.441Z,994.14
2018-03-02T10:17:51.436Z,994.09
2018-03-02T10:18:51.447Z,994.06
2018-03-02T10:19:51.413Z,994.08
2018-03-02T10:20:51.430Z,994.02
2018-03-02T10:21:51.397Z,994.12
2018-03-02T10:22:51.387Z,994.16
2018-03-02T10:23:51.378Z,994.17
2018-03-02T10:24:51.372Z,994.09
2018-03-02T10:25:51.361Z,994.06
2018-03-02T10:26:51.359Z,994.06
2018-03-02T10:27:51.345Z,993.98
2018-03-02T10:28:51.335Z,993.99
2018-03-02T10:29:51.326Z,994.01
2018-03-02T10:30:51.328Z,994.03
2018-03-02T10:31:51.336Z,994.03
2018-03-02T10:32:51.307Z,994.01
2018-03-02T10:33:51.308Z,994.00
2018-03-02T10:34:51.290Z,994.07
2018-03-02T10:35:51.277Z,993.95
2018-03-02T10:36:51.275Z,994.03
2018-03-02T10:37:51.261Z,993.84
2018-03-02T10:38:51.261Z,994.09
2018-03-02T10:39:51.252Z,993.90
2018-03-02T10:40:51.243Z,993.96
2018-03-02T10:41:51.229Z,993.98
2018-03-02T10:42:51.219Z,993.93
2018-03-02T10:43:51.215Z,994.01
2018-03-02T10:44:51.203Z,994.02
2018-03-02T10:45:51.196Z,993.98
2018-03-02T10:46:51.190Z,994.01
2018-03-02T10:47:51.180Z,993.96
2018-03-02T10:48:51.173Z,994.03
2018-03-02T10:49:51.158Z,993.97
2018-03-02T10:50:51.155Z,993.90
2018-03-02T10:51:51.145Z,993.97
2018-03-02T10:52:51.140Z,993.92
2018-03-02T10:53:51.131Z,993.86
2018-03-02T10:54:51.124Z,993.90
2018-03-02T10:55:51.115Z,993.87
2018-03-02T10:56:51.102Z,993.89
2018-03-02T10:57:51.099Z,993.86
2018-03-02T10:58:51.095Z,993.96
2018-03-02T10:59:51.077Z,993.95
2018-03-02T11:00:51.076Z,993.92
2018-03-02T11:01:51.080Z,993.93
2018-03-02T11:02:51.058Z,994.05
2018-03-02T11:03:51.047Z,993.87
2018-03-02T11:04:51.039Z,993.99
2018-03-02T11:05:51.038Z,993.83
2018-03-02T11:06:51.021Z,993.89
2018-03-02T11:07:51.018Z,993.84
2018-03-02T11:08:51.009Z,993.94
2018-03-02T11:09:50.999Z,994.01
2018-03-02T11:10:50.988Z,993.94
2018-03-02T11:11:50.984Z,993.91
2018-03-02T11:12:50.975Z,993.77
2018-03-02T11:13:50.976Z,993.85
2018-03-02T11:14:50.961Z,993.87
2018-03-02T11:15:50.953Z,993.85
2018-03-02T11:16:50.942Z,993.86
2018-03-02T11:17:50.934Z,993.89
2018-03-02T11:18:50.936Z,993.86
2018-03-02T11:19:50.923Z,993.84
2018-03-02T11:20:50.958Z,993.92
2018-03-02T11:21:50.906Z,993.89
2018-03-02T11:22:50.899Z,993.83
2018-03-02T11:23:50.899Z,993.78
2018-03-02T11:24:50.878Z,993.72
2018-03-02T11:25:50.874Z,993.73
2018-03-02T11:26:50.871Z,993.70
2018-03-02T11:27:50.861Z,993.66
2018-03-02T11:28:50.853Z,993.70
2018-03-02T11:29:50.846Z,993.65
2018-03-02T11:30:50.835Z,993.71
2018-03-02T11:31:50.826Z,993.61
2018-03-02T11:32:50.818Z,993.55
2018-03-02T11:33:50.807Z,993.59
2018-03-02T11:34:50.808Z,993.63
2018-03-02T11:35:50.802Z,993.52
2018-03-02T11:36:50.787Z,993.49
2018-03-02T11:37:50.805Z,993.50
2018-03-02T11:38:50.781Z,993.51
2018-03-02T11:39:50.770Z,993.54
2018-03-02T11:40:50.760Z,993.52
2018-03-02T11:41:50.757Z,993.54
2018-03-02T11:42:50.749Z,993.56
2018-03-02T11:43:50.735Z,993.57
2018-03-02T11:44:50.727Z,993.57
2018-03-02T11:45:50.725Z,993.51
2018-03-02T11:46:50.721Z,993.45
2018-03-02T11:47:50.711Z,993.51
2018-03-02T11:48:50.701Z,993.53
2018-03-02T11:49:50.690Z,993.43
2018-03-02T11:50:50.681Z,993.54
2018-03-02T11:51:50.674Z,993.51
2018-03-02T11:52:50.678Z,993.52
2018-03-02T11:53:50.675Z,993.48
2018-03-02T11:54:50.654Z,993.47
2018-03-02T11:55:50.637Z,993.33
2018-03-02T11:56:50.635Z,993.42
2018-03-02T11:57:50.638Z,993.51
2018-03-02T11:58:50.621Z,993.44
2018-03-02T11:59:50.609Z,993.58
2018-03-02T12:00:50.603Z,993.47
2018-03-02T12:01:50.596Z,993.47
2018-03-02T12:02:50.589Z,993.46
2018-03-02T12:03:50.608Z,993.48
2018-03-02T12:04:50.569Z,993.54
2018-03-02T12:05:50.579Z,993.45
2018-03-02T12:06:50.560Z,993.52
2018-03-02T12:07:50.580Z,993.54
2018-03-02T12:08:50.545Z,993.48
2018-03-02T12:09:50.536Z,993.44
2018-03-02T12:10:50.526Z,993.40
2018-03-02T12:11:50.515Z,993.42
2018-03-02T12:12:50.506Z,993.48
2018-03-02T12:13:50.502Z,993.42
2018-03-02T12:14:50.493Z,993.44
2018-03-02T12:15:50.486Z,993.45
2018-03-02T12:16:50.498Z,993.44
2018-03-02T12:17:50.469Z,993.38
2018-03-02T12:18:50.462Z,993.57
2018-03-02T12:19:50.459Z,993.35
2018-03-02T12:20:50.449Z,993.27
2018-03-02T12:21:50.444Z,993.25
2018-03-02T12:22:50.430Z,993.25
2018-03-02T12:23:50.422Z,993.27
2018-03-02T12:24:50.409Z,993.21
2018-03-02T12:25:50.408Z,993.26
2018-03-02T12:26:50.399Z,993.21
2018-03-02T12:27:50.388Z,993.19
2018-03-02T12:28:50.379Z,993.25
2018-03-02T12:29:50.373Z,993.21
2018-03-02T12:30:50.367Z,993.15
2018-03-02T12:31:50.354Z,993.26
2018-03-02T12:32:50.351Z,993.19
2018-03-02T12:33:50.343Z,993.10
2018-03-02T12:34:50.341Z,993.16
2018-03-02T12:35:50.327Z,993.07
2018-03-02T12:36:50.318Z,993.11
2018-03-02T12:37:50.315Z,993.07
2018-03-02T12:38:50.348Z,993.01
2018-03-02T12:39:50.296Z,993.09
2018-03-02T12:40:50.290Z,993.05
2018-03-02T12:41:50.270Z,993.08
2018-03-02T12:42:50.264Z,993.10
2018-03-02T12:43:50.269Z,993.08
2018-03-02T12:44:50.246Z,993.07
2018-03-02T12:45:50.240Z,993.03
2018-03-02T12:46:50.235Z,993.15
2018-03-02T12:47:50.222Z,993.13